MUC | München Airways

 METAR UND TAF INFORMATION

METAR FOR WADD
ADDS - METARS form results

(0320 UTC 24 January 2019)
Data provider http://aviationweather.gov/metar/data/
 
METAR text: WADD 240300Z 27017KT 9999 SCT015 28/25 Q1009 NOSIG
Conditions at: WADD (BALI INTL , ID) observed 0300 UTC 24 January 2019
Temperature: 28.0°C (82°F)
Dewpoint: 25.0°C (77°F) [RH = 84%]
Pressure (altimeter): 29.79 inches Hg (1009.0 mb)
Winds: from the W (270 degrees) at 20 MPH (17 knots; 8.7 m/s)
Visibility: 6 or more miles (10+ km)
Ceiling: at least 12,000 feet AGL
Clouds: scattered clouds at 1500 feet AGL
Weather: no significant weather observed at this time

METAR text: WADD 240230Z 28019KT 7000 -RA BKN015 27/25 Q1009 TEMPO TL0330 -RA
Conditions at: WADD (BALI INTL , ID) observed 0230 UTC 24 January 2019
Temperature: 27.0°C (81°F)
Dewpoint: 25.0°C (77°F) [RH = 89%]
Pressure (altimeter): 29.79 inches Hg (1009.0 mb)
Winds: from the W (280 degrees) at 22 MPH (19 knots; 9.8 m/s)
Visibility: 4 miles ( 7 km)
Ceiling: 1500 feet AGL
Clouds: broken clouds at 1500 feet AGL
Weather: -RA  (light rain)

Forecast for: WADD (BALI INTL , ID)
Text: TAF WADD 232300Z 2400/2500 28015KT 9999 SCT016
Forecast period: 0000 UTC 24 January 2019 to 0000 UTC 25 January 2019
Forecast type: FROM: standard forecast or significant change
Winds: from the W (280 degrees) at 17 MPH (15 knots; 7.7 m/s)
Visibility: 6 or more miles 10+ km)
Ceiling: at least 12,000 feet AGL
Clouds: scattered clouds at 1600 feet AGL
Weather: no significant weather forecast for this period
Text: TEMPO 2410/2414 5000 TSRA FEW015CB BKN015
Forecast period: 1000 to 1400 UTC 24 January 2019
Forecast type: TEMPORARY: The following changes expected for less than half the time period
Visibility: 3 miles (5 km)
Ceiling: 1500 feet AGL
Clouds: few clouds at 1500 feet AGL
broken clouds at 1500 feet AGL
Weather: TSRA  (rain associated with thunderstorm(s))

 FLUGHAFENKARTE

 RUNWAY INFORMATION
Runway 09 Runway length 9790 ft Runway width 148 ft
Runway elevation 11 ft Runway displaced threshold 0 ft Runway heading 88
Runway 27 Runway length 9790 ft Runway width 148 ft
Runway elevation 12 ft Runway displaced threshold 0 ft Runway heading 268

 AIRPORT FREQUENCIES
Type APP Name DIRECTOR Frequency 119.7 MHZ
Type ATIS Name ATIS Frequency 126.2 MHZ
Type GND Name NGURAH GND Frequency 118.8 MHZ
Type INFO Name INFO Frequency 8.88 MHZ
Type TWR Name NGURAH TWR Frequency 118.1 MHZ
Type TMA Name RADAR Frequency 119.3 MHZ

 AIRPORT NEAR NAVIGATION AIDS
Type VOR-DME Name Bali Frequency 116200 KHZ
Type NDB Name Bali Frequency 230 KHZ